createdAt,value
2022-10-06T00:00:53.414Z,8.45
2022-10-06T00:03:24.115Z,10.05
2022-10-06T00:05:51.618Z,10.16
2022-10-06T00:08:19.553Z,9.90
2022-10-06T00:10:46.738Z,8.72
2022-10-06T00:13:13.755Z,8.39
2022-10-06T00:15:40.757Z,9.04
2022-10-06T00:18:07.783Z,9.64
2022-10-06T00:20:34.733Z,7.24
2022-10-06T00:23:01.639Z,9.37
2022-10-06T00:25:28.624Z,8.54
2022-10-06T00:27:56.021Z,7.65
2022-10-06T00:30:26.235Z,7.77
2022-10-06T00:33:02.085Z,10.22
2022-10-06T00:35:33.589Z,9.01
2022-10-06T00:38:01.519Z,10.26
2022-10-06T00:40:29.150Z,10.28
2022-10-06T00:43:01.702Z,5.96
2022-10-06T00:45:45.648Z,7.97
2022-10-06T00:48:27.862Z,7.74
2022-10-06T00:50:58.338Z,9.66
2022-10-06T00:53:28.558Z,10.11
2022-10-06T00:55:55.705Z,7.44
2022-10-06T00:58:22.671Z,9.18
2022-10-06T01:00:55.317Z,8.53
2022-10-06T01:03:35.051Z,8.50
2022-10-06T01:06:03.981Z,8.77
2022-10-06T01:08:32.778Z,3.95
2022-10-06T01:11:00.295Z,10.27
2022-10-06T01:13:28.387Z,10.30
2022-10-06T01:16:27.697Z,10.18
2022-10-06T01:18:56.282Z,9.79
2022-10-06T01:21:31.829Z,10.30
2022-10-06T01:23:58.983Z,4.99
2022-10-06T01:26:28.700Z,6.56
2022-10-06T01:28:56.398Z,10.17
2022-10-06T01:31:23.810Z,10.16
2022-10-06T01:33:55.429Z,7.76
2022-10-06T01:36:22.707Z,6.71
2022-10-06T01:38:49.632Z,6.30
2022-10-06T01:41:16.804Z,9.77
2022-10-06T01:43:43.652Z,7.54
2022-10-06T01:46:10.689Z,7.58
2022-10-06T01:48:37.810Z,7.62
2022-10-06T01:51:04.752Z,8.98
2022-10-06T01:53:31.727Z,5.37
2022-10-06T01:55:59.849Z,9.77
2022-10-06T01:58:27.280Z,6.06
2022-10-06T02:00:54.603Z,8.30
2022-10-06T02:03:21.721Z,9.22
2022-10-06T02:05:48.691Z,9.00
2022-10-06T02:08:15.664Z,7.19
2022-10-06T02:10:43.306Z,10.07
2022-10-06T02:13:10.769Z,6.46
2022-10-06T02:15:37.860Z,10.02
2022-10-06T02:18:04.813Z,6.29
2022-10-06T02:20:32.170Z,8.77
2022-10-06T02:23:02.217Z,9.07
2022-10-06T02:25:29.171Z,8.38
2022-10-06T02:27:56.115Z,7.12
2022-10-06T02:30:23.375Z,8.57
2022-10-06T02:32:50.374Z,6.90
2022-10-06T02:35:17.817Z,10.00
2022-10-06T02:37:44.801Z,8.70
2022-10-06T02:40:11.780Z,8.73
2022-10-06T02:42:39.202Z,9.21
2022-10-06T02:45:07.297Z,8.15
2022-10-06T02:47:35.973Z,7.90
2022-10-06T02:50:05.697Z,9.88
2022-10-06T02:52:34.711Z,6.89
2022-10-06T02:55:06.747Z,9.87
2022-10-06T02:57:33.731Z,7.71
2022-10-06T03:00:00.757Z,9.69
2022-10-06T03:02:30.986Z,9.62
2022-10-06T03:04:58.191Z,2.73
2022-10-06T03:07:25.337Z,7.50
2022-10-06T03:09:52.342Z,9.53
2022-10-06T03:12:19.245Z,8.07
2022-10-06T03:14:46.153Z,9.55
2022-10-06T03:17:13.104Z,0.76
2022-10-06T03:19:40.478Z,0.11
2022-10-06T03:22:07.614Z,3.63
2022-10-06T03:24:35.281Z,5.88
2022-10-06T03:27:02.231Z,0.02
2022-10-06T03:29:31.353Z,8.59
2022-10-06T03:31:59.071Z,9.05
2022-10-06T03:34:26.171Z,4.33
2022-10-06T03:36:53.341Z,3.15
2022-10-06T03:39:20.317Z,3.52
2022-10-06T03:41:47.475Z,7.42
2022-10-06T03:44:14.654Z,7.69
2022-10-06T03:46:41.780Z,8.58
2022-10-06T03:49:09.257Z,6.79
2022-10-06T03:51:39.114Z,9.94
2022-10-06T03:54:08.142Z,6.34
2022-10-06T03:56:38.085Z,7.18
2022-10-06T03:59:10.590Z,7.46
2022-10-06T04:01:40.215Z,8.99
2022-10-06T04:04:07.981Z,8.93
2022-10-06T04:06:37.420Z,9.86
2022-10-06T04:09:08.484Z,9.89
2022-10-06T04:11:39.855Z,6.97
2022-10-06T04:14:11.897Z,4.99
2022-10-06T04:16:44.759Z,9.81
2022-10-06T04:19:13.574Z,9.49
2022-10-06T04:21:42.740Z,9.78
2022-10-06T04:24:11.170Z,9.82
2022-10-06T04:26:40.941Z,9.81
2022-10-06T04:29:08.351Z,7.99
2022-10-06T04:31:37.695Z,9.79
2022-10-06T04:34:06.640Z,9.78
2022-10-06T04:36:36.932Z,2.09
2022-10-06T04:39:05.506Z,9.47
2022-10-06T04:41:35.031Z,9.73
2022-10-06T04:44:03.660Z,9.80
2022-10-06T04:46:47.160Z,8.87
2022-10-06T04:49:19.956Z,6.81
2022-10-06T04:51:49.927Z,9.84
2022-10-06T04:54:17.708Z,0.49
2022-10-06T04:56:44.667Z,5.08
2022-10-06T04:59:11.651Z,7.88
2022-10-06T05:01:38.831Z,6.74
2022-10-06T05:04:06.695Z,8.64
2022-10-06T05:06:36.515Z,9.85
2022-10-06T05:09:09.319Z,9.88
2022-10-06T05:11:36.542Z,9.86
2022-10-06T05:14:03.535Z,8.05
2022-10-06T05:16:31.787Z,9.93
2022-10-06T05:19:09.102Z,7.86
2022-10-06T05:21:36.449Z,7.06
2022-10-06T05:24:03.915Z,10.06
2022-10-06T05:26:33.393Z,9.07
2022-10-06T05:29:00.849Z,6.82
2022-10-06T05:31:33.195Z,8.81
2022-10-06T05:34:00.310Z,7.63
2022-10-06T05:36:30.126Z,7.03
2022-10-06T05:38:58.043Z,10.00
2022-10-06T05:41:29.056Z,8.81
2022-10-06T05:43:56.754Z,10.50
2022-10-06T05:46:28.800Z,10.54
2022-10-06T05:49:03.841Z,9.61
2022-10-06T05:51:32.899Z,9.02
2022-10-06T05:54:00.855Z,10.35
2022-10-06T05:56:28.887Z,10.73
2022-10-06T05:58:57.765Z,9.83
2022-10-06T06:01:33.597Z,10.88
2022-10-06T06:04:05.689Z,10.90
2022-10-06T06:06:40.865Z,2.03
2022-10-06T06:09:18.977Z,10.18
2022-10-06T06:11:50.815Z,10.34
2022-10-06T06:14:20.137Z,11.17
2022-10-06T06:16:47.266Z,10.54
2022-10-06T06:19:14.921Z,11.33
2022-10-06T06:21:42.058Z,11.04
2022-10-06T06:24:09.097Z,11.45
2022-10-06T06:26:37.685Z,11.57
2022-10-06T06:29:06.565Z,11.65
2022-10-06T06:31:35.885Z,11.79
2022-10-06T06:34:05.141Z,11.82
2022-10-06T06:36:37.443Z,11.93
2022-10-06T06:39:07.070Z,3.43
2022-10-06T06:41:38.135Z,12.11
2022-10-06T06:44:07.658Z,10.28
2022-10-06T06:49:22.913Z,11.37
2022-10-06T06:51:50.260Z,11.37
2022-10-06T06:54:17.417Z,12.66
2022-10-06T06:56:45.875Z,12.76
2022-10-06T06:59:13.560Z,12.39
2022-10-06T07:01:46.102Z,13.06
2022-10-06T07:04:15.573Z,13.45
2022-10-06T07:06:50.813Z,9.55
2022-10-06T07:09:17.754Z,11.86
2022-10-06T07:11:44.674Z,9.97
2022-10-06T07:14:12.953Z,11.34
2022-10-06T07:16:58.732Z,13.64
2022-10-06T07:19:57.969Z,13.88
2022-10-06T07:22:45.526Z,13.99
2022-10-06T07:25:25.396Z,13.98
2022-10-06T07:27:53.136Z,14.01
2022-10-06T07:30:30.610Z,13.85
2022-10-06T07:32:57.610Z,14.16
2022-10-06T07:35:26.042Z,14.24
2022-10-06T07:37:55.745Z,11.67
2022-10-06T07:40:23.085Z,9.34
2022-10-06T07:42:52.469Z,14.25
2022-10-06T07:45:39.460Z,14.41
2022-10-06T07:48:10.998Z,14.40
2022-10-06T07:50:40.232Z,14.14
2022-10-06T07:53:10.322Z,14.18
2022-10-06T07:55:40.232Z,12.08
2022-10-06T07:58:25.473Z,12.89
2022-10-06T08:00:53.467Z,13.56
2022-10-06T08:03:21.301Z,13.88
2022-10-06T08:05:50.288Z,14.83
2022-10-06T08:08:17.499Z,14.78
2022-10-06T08:10:52.338Z,13.97
2022-10-06T08:13:19.273Z,13.72
2022-10-06T08:15:46.344Z,14.61
2022-10-06T08:18:33.727Z,13.53
2022-10-06T08:21:00.731Z,15.07
2022-10-06T08:23:27.711Z,14.51
2022-10-06T08:25:56.578Z,9.85
2022-10-06T08:28:24.721Z,14.52
2022-10-06T08:30:52.740Z,14.04
2022-10-06T08:33:21.442Z,13.74
2022-10-06T08:35:48.725Z,15.35
2022-10-06T08:38:15.694Z,12.65
2022-10-06T08:40:45.121Z,10.87
2022-10-06T08:43:19.267Z,12.40
2022-10-06T08:45:48.050Z,15.13
2022-10-06T08:48:20.228Z,15.50
2022-10-06T08:50:58.831Z,15.76
2022-10-06T08:54:18.275Z,16.02
2022-10-06T08:57:00.549Z,16.44
2022-10-06T08:59:27.514Z,15.70
2022-10-06T09:01:55.075Z,15.87
2022-10-06T09:04:29.657Z,14.77
2022-10-06T09:07:00.321Z,16.86
2022-10-06T09:09:36.570Z,16.83
2022-10-06T09:12:30.875Z,15.84
2022-10-06T09:15:35.388Z,17.13
2022-10-06T09:18:13.676Z,16.64
2022-10-06T09:20:47.938Z,17.29
2022-10-06T09:23:17.432Z,17.46
2022-10-06T09:25:45.150Z,17.41
2022-10-06T09:28:16.132Z,17.59
2022-10-06T09:30:43.812Z,17.37
2022-10-06T09:33:21.214Z,14.45
2022-10-06T09:36:11.598Z,17.11
2022-10-06T09:38:59.807Z,18.02
2022-10-06T09:41:37.916Z,16.53
2022-10-06T09:44:07.433Z,18.30
2022-10-06T09:46:42.122Z,13.04
2022-10-06T09:49:27.030Z,17.25
2022-10-06T09:52:15.427Z,18.13
2022-10-06T09:54:44.074Z,18.17
2022-10-06T09:57:18.002Z,17.44
2022-10-06T09:59:47.233Z,15.55
2022-10-06T10:02:37.421Z,18.15
2022-10-06T10:05:07.772Z,18.19
2022-10-06T10:07:36.682Z,17.73
2022-10-06T10:10:18.951Z,18.38
2022-10-06T10:12:52.937Z,18.36
2022-10-06T10:15:19.888Z,18.34
2022-10-06T10:17:53.582Z,18.45
2022-10-06T10:20:28.521Z,18.67
2022-10-06T10:22:58.719Z,17.33
2022-10-06T10:25:44.780Z,18.22
2022-10-06T10:28:15.613Z,18.35
2022-10-06T10:31:07.531Z,18.39
2022-10-06T10:33:54.225Z,17.97
2022-10-06T10:36:40.414Z,18.44
2022-10-06T10:39:40.246Z,16.66
2022-10-06T10:42:21.222Z,18.41
2022-10-06T10:45:01.090Z,18.26
2022-10-06T10:47:34.793Z,18.81
2022-10-06T10:50:13.205Z,18.86
2022-10-06T10:52:44.634Z,17.05
2022-10-06T10:55:18.777Z,18.98
2022-10-06T10:57:47.281Z,13.17
2022-10-06T11:00:22.195Z,18.99
2022-10-06T11:02:55.543Z,18.47
2022-10-06T11:05:29.062Z,18.77
2022-10-06T11:08:43.397Z,18.76
2022-10-06T11:11:20.208Z,18.41
2022-10-06T11:13:54.603Z,18.57
2022-10-06T11:16:46.461Z,18.44
2022-10-06T11:19:28.401Z,18.30
2022-10-06T11:22:08.575Z,17.43
2022-10-06T11:24:41.554Z,18.04
2022-10-06T11:27:45.861Z,17.99
2022-10-06T11:30:19.926Z,18.02
2022-10-06T11:33:09.374Z,17.51
2022-10-06T11:35:42.078Z,15.80
2022-10-06T11:38:42.973Z,17.82
2022-10-06T11:41:23.728Z,17.76
2022-10-06T11:44:32.977Z,17.74
2022-10-06T11:47:15.051Z,16.66
2022-10-06T11:49:53.585Z,18.10
2022-10-06T11:52:20.497Z,18.19
2022-10-06T11:55:17.870Z,17.20
2022-10-06T11:58:23.402Z,18.52
2022-10-06T12:00:54.968Z,18.31
2022-10-06T12:03:33.437Z,18.88
2022-10-06T12:06:00.537Z,17.10
2022-10-06T12:08:39.493Z,17.78
2022-10-06T12:11:40.441Z,19.01
2022-10-06T12:17:19.729Z,19.21
2022-10-06T12:19:58.264Z,19.20
2022-10-06T12:22:37.590Z,16.92
2022-10-06T12:25:28.346Z,18.97
2022-10-06T12:28:29.186Z,18.98
2022-10-06T12:31:18.253Z,19.00
2022-10-06T12:33:46.005Z,18.27
2022-10-06T12:36:18.401Z,18.89
2022-10-06T12:39:02.827Z,18.67
2022-10-06T12:41:59.216Z,19.19
2022-10-06T12:44:32.059Z,19.26
2022-10-06T12:47:05.034Z,19.19
2022-10-06T12:49:39.352Z,18.83
2022-10-06T12:52:14.538Z,19.18
2022-10-06T12:54:59.007Z,19.09
2022-10-06T12:57:30.913Z,17.77
2022-10-06T12:59:58.540Z,16.74
2022-10-06T13:02:29.237Z,18.72
2022-10-06T13:05:00.746Z,19.09
2022-10-06T13:07:34.228Z,16.57
2022-10-06T13:10:19.707Z,19.00
2022-10-06T13:12:50.459Z,18.35
2022-10-06T13:15:20.524Z,18.85
2022-10-06T13:17:56.815Z,18.21
2022-10-06T13:20:32.746Z,18.83
2022-10-06T13:23:10.219Z,18.71
2022-10-06T13:25:46.661Z,18.30
2022-10-06T13:28:28.206Z,18.04
2022-10-06T13:31:02.964Z,18.69
2022-10-06T13:33:35.554Z,17.85
2022-10-06T13:36:03.128Z,17.30
2022-10-06T13:38:35.293Z,17.37
2022-10-06T13:41:06.908Z,17.85
2022-10-06T13:43:40.854Z,17.44
2022-10-06T13:46:14.331Z,18.27
2022-10-06T13:48:51.625Z,17.59
2022-10-06T13:51:23.250Z,18.24
2022-10-06T13:53:50.676Z,15.10
2022-10-06T13:56:36.379Z,18.23
2022-10-06T13:59:23.472Z,18.09
2022-10-06T14:01:50.656Z,17.75
2022-10-06T14:04:19.382Z,15.34
2022-10-06T14:07:06.593Z,17.74
2022-10-06T14:09:36.637Z,15.37
2022-10-06T14:12:16.529Z,17.68
2022-10-06T14:14:53.367Z,17.65
2022-10-06T14:17:23.808Z,17.76
2022-10-06T14:19:51.460Z,17.79
2022-10-06T14:22:38.640Z,17.82
2022-10-06T14:25:12.459Z,17.80
2022-10-06T14:27:39.396Z,16.99
2022-10-06T14:30:07.094Z,16.04
2022-10-06T14:32:34.013Z,16.80
2022-10-06T14:35:01.816Z,16.96
2022-10-06T14:37:28.735Z,15.11
2022-10-06T14:39:56.665Z,16.30
2022-10-06T14:42:24.699Z,17.60
2022-10-06T14:44:51.650Z,15.97
2022-10-06T14:47:18.675Z,16.42
2022-10-06T14:49:45.672Z,16.43
2022-10-06T14:52:13.087Z,15.16
2022-10-06T14:54:40.187Z,17.00
2022-10-06T14:57:07.148Z,16.42
2022-10-06T14:59:34.178Z,15.91
2022-10-06T15:02:01.375Z,11.82
2022-10-06T15:04:28.562Z,16.06
2022-10-06T15:07:13.836Z,16.11
2022-10-06T15:09:40.766Z,12.60
2022-10-06T15:12:07.838Z,15.92
2022-10-06T15:14:40.059Z,16.26
2022-10-06T15:17:07.149Z,14.99
2022-10-06T15:19:34.604Z,14.61
2022-10-06T15:22:01.678Z,14.49
2022-10-06T15:24:28.637Z,14.30
2022-10-06T15:27:14.411Z,14.04
2022-10-06T15:29:41.304Z,15.81
2022-10-06T15:32:08.709Z,15.95
2022-10-06T15:34:38.058Z,15.13
2022-10-06T15:37:05.467Z,16.25
2022-10-06T15:39:36.844Z,16.18
2022-10-06T15:42:04.540Z,16.11
2022-10-06T15:44:33.801Z,15.98
2022-10-06T15:47:01.304Z,7.87
2022-10-06T15:49:38.312Z,12.39
2022-10-06T15:52:05.731Z,13.38
2022-10-06T15:54:37.919Z,15.64
2022-10-06T15:57:08.938Z,14.75
2022-10-06T15:59:36.912Z,15.43
2022-10-06T16:02:16.222Z,14.60
2022-10-06T16:04:44.374Z,15.20
2022-10-06T16:07:13.092Z,12.42
2022-10-06T16:09:43.597Z,14.03
2022-10-06T16:12:11.732Z,14.99
2022-10-06T16:14:38.917Z,13.84
2022-10-06T16:17:06.854Z,14.77
2022-10-06T16:19:37.188Z,14.37
2022-10-06T16:22:05.679Z,14.17
2022-10-06T16:24:33.015Z,13.36
2022-10-06T16:27:00.483Z,13.30
2022-10-06T16:29:28.524Z,13.02
2022-10-06T16:31:56.180Z,13.98
2022-10-06T16:34:23.757Z,13.95
2022-10-06T16:36:50.695Z,11.64
2022-10-06T16:39:20.650Z,13.80
2022-10-06T16:41:48.077Z,12.78
2022-10-06T16:44:15.561Z,13.34
2022-10-06T16:46:43.285Z,13.31
2022-10-06T16:49:10.554Z,7.40
2022-10-06T16:51:42.577Z,13.27
2022-10-06T16:54:11.410Z,11.36
2022-10-06T16:56:41.363Z,10.58
2022-10-06T16:59:19.632Z,13.01
2022-10-06T17:01:48.103Z,11.65
2022-10-06T17:04:18.196Z,12.92
2022-10-06T17:06:46.370Z,12.91
2022-10-06T17:09:18.760Z,12.85
2022-10-06T17:11:48.601Z,12.78
2022-10-06T17:14:15.986Z,9.15
2022-10-06T17:16:44.509Z,12.55
2022-10-06T17:19:13.909Z,10.83
2022-10-06T17:21:46.269Z,5.90
2022-10-06T17:24:14.324Z,11.41
2022-10-06T17:26:43.742Z,12.27
2022-10-06T17:29:19.655Z,9.67
2022-10-06T17:31:48.645Z,12.07
2022-10-06T17:34:21.125Z,11.68
2022-10-06T17:36:51.532Z,10.96
2022-10-06T17:39:21.282Z,10.40
2022-10-06T17:41:50.568Z,11.24
2022-10-06T17:44:23.921Z,11.35
2022-10-06T17:46:54.007Z,11.35
2022-10-06T17:49:22.373Z,11.36
2022-10-06T17:51:51.099Z,9.31
2022-10-06T17:54:21.036Z,9.68
2022-10-06T17:56:50.906Z,10.62
2022-10-06T17:59:29.177Z,11.41
2022-10-06T18:01:57.887Z,11.40
2022-10-06T18:04:25.363Z,11.37
2022-10-06T18:06:54.421Z,11.29
2022-10-06T18:09:22.147Z,8.36
2022-10-06T18:11:54.978Z,10.86
2022-10-06T18:14:24.628Z,11.21
2022-10-06T18:16:58.028Z,9.80
2022-10-06T18:19:30.573Z,11.00
2022-10-06T18:22:00.617Z,10.90
2022-10-06T18:24:29.740Z,9.80
2022-10-06T18:26:59.062Z,10.90
2022-10-06T18:29:30.625Z,10.79
2022-10-06T18:32:15.207Z,8.28
2022-10-06T18:37:31.566Z,9.41
2022-10-06T18:39:58.683Z,8.44
2022-10-06T18:42:25.843Z,10.22
2022-10-06T18:45:11.328Z,10.24
2022-10-06T18:47:57.007Z,9.51
2022-10-06T18:50:24.068Z,8.23
2022-10-06T18:52:50.889Z,10.54
2022-10-06T18:55:17.788Z,9.65
2022-10-06T18:57:45.556Z,9.51
2022-10-06T19:00:13.202Z,1.09
2022-10-06T19:02:40.767Z,9.38
2022-10-06T19:05:09.205Z,8.83
2022-10-06T19:07:36.125Z,6.92
2022-10-06T19:10:03.068Z,4.30
2022-10-06T19:12:30.009Z,3.55
2022-10-06T19:14:58.180Z,10.08
2022-10-06T19:17:25.115Z,2.75
2022-10-06T19:19:55.616Z,10.02
2022-10-06T19:22:24.917Z,1.85
2022-10-06T19:24:52.562Z,9.90
2022-10-06T19:27:24.508Z,9.84
2022-10-06T19:29:56.941Z,9.58
2022-10-06T19:32:27.473Z,8.25
2022-10-06T19:34:59.171Z,8.59
2022-10-06T19:37:30.802Z,8.98
2022-10-06T19:39:57.946Z,9.79
2022-10-06T19:42:43.951Z,6.99
2022-10-06T19:45:12.397Z,8.95
2022-10-06T19:47:40.371Z,8.71
2022-10-06T19:50:12.080Z,9.51
2022-10-06T19:52:40.921Z,8.80
2022-10-06T19:55:08.101Z,9.06
2022-10-06T19:57:35.100Z,6.98
2022-10-06T20:00:02.325Z,6.90
2022-10-06T20:02:29.865Z,4.21
2022-10-06T20:04:57.293Z,5.30
2022-10-06T20:07:28.023Z,6.84
2022-10-06T20:09:55.119Z,9.37
2022-10-06T20:12:25.047Z,8.92
2022-10-06T20:14:53.971Z,7.93
2022-10-06T20:17:21.693Z,9.33
2022-10-06T20:19:48.756Z,8.28
2022-10-06T20:22:15.877Z,7.72
2022-10-06T20:24:45.917Z,8.48
2022-10-06T20:27:12.877Z,4.62
2022-10-06T20:29:39.889Z,7.47
2022-10-06T20:32:06.884Z,7.61
2022-10-06T20:34:34.145Z,5.15
2022-10-06T20:37:03.264Z,9.08
2022-10-06T20:39:50.769Z,7.25
2022-10-06T20:42:20.028Z,4.08
2022-10-06T20:44:47.319Z,8.33
2022-10-06T20:47:14.832Z,6.48
2022-10-06T20:49:44.850Z,4.11
2022-10-06T20:52:14.870Z,1.55
2022-10-06T20:54:42.607Z,9.03
2022-10-06T20:57:09.903Z,8.09
2022-10-06T20:59:37.850Z,7.72
2022-10-06T21:02:06.474Z,7.62
2022-10-06T21:04:34.241Z,7.61
2022-10-06T21:07:04.222Z,7.31
2022-10-06T21:09:31.365Z,8.17
2022-10-06T21:11:58.557Z,5.88
2022-10-06T21:14:25.781Z,5.08
2022-10-06T21:16:53.215Z,7.00
2022-10-06T21:19:20.632Z,8.72
2022-10-06T21:21:53.695Z,2.48
2022-10-06T21:24:21.457Z,8.59
2022-10-06T21:26:49.698Z,8.53
2022-10-06T21:29:16.750Z,5.62
2022-10-06T21:31:44.742Z,8.55
2022-10-06T21:34:14.632Z,8.56
2022-10-06T21:36:43.708Z,7.50
2022-10-06T21:39:12.241Z,8.49
2022-10-06T21:41:40.141Z,8.44
2022-10-06T21:44:11.162Z,8.42
2022-10-06T21:46:41.386Z,8.42
2022-10-06T21:49:16.478Z,8.00
2022-10-06T21:51:46.177Z,8.33
2022-10-06T21:54:14.038Z,8.37
2022-10-06T21:56:41.798Z,7.88
2022-10-06T21:59:10.023Z,8.35
2022-10-06T22:01:39.818Z,6.49
2022-10-06T22:04:07.340Z,8.26
2022-10-06T22:06:36.984Z,7.36
2022-10-06T22:09:06.245Z,6.30
2022-10-06T22:11:36.459Z,8.21
2022-10-06T22:14:06.760Z,8.09
2022-10-06T22:16:35.872Z,7.75
2022-10-06T22:19:06.025Z,4.99
2022-10-06T22:21:35.758Z,5.22
2022-10-06T22:24:05.588Z,7.90
2022-10-06T22:26:34.255Z,7.83
2022-10-06T22:29:01.467Z,7.86
2022-10-06T22:31:28.996Z,1.37
2022-10-06T22:33:58.321Z,7.87
2022-10-06T22:36:27.371Z,7.78
2022-10-06T22:38:59.517Z,7.76
2022-10-06T22:41:26.873Z,7.37
2022-10-06T22:43:57.957Z,2.55
2022-10-06T22:46:26.696Z,6.18
2022-10-06T22:48:54.415Z,4.93
2022-10-06T22:51:21.614Z,6.48
2022-10-06T22:53:58.252Z,2.06
2022-10-06T22:56:26.894Z,6.31
2022-10-06T22:58:55.750Z,7.18
2022-10-06T23:01:23.182Z,7.45
2022-10-06T23:03:50.129Z,3.93
2022-10-06T23:06:18.319Z,5.66
2022-10-06T23:08:45.577Z,2.08
2022-10-06T23:11:18.764Z,7.37
2022-10-06T23:13:46.524Z,7.33
2022-10-06T23:16:15.766Z,7.29
2022-10-06T23:18:44.931Z,7.33
2022-10-06T23:21:24.372Z,6.91
2022-10-06T23:23:58.769Z,7.24
2022-10-06T23:26:26.258Z,6.21
2022-10-06T23:28:57.773Z,-2.58
2022-10-06T23:31:25.402Z,6.39
2022-10-06T23:33:53.713Z,5.81
2022-10-06T23:36:20.887Z,5.22
2022-10-06T23:38:48.130Z,4.64
2022-10-06T23:41:16.002Z,6.09
2022-10-06T23:43:43.296Z,6.69
2022-10-06T23:46:10.878Z,7.00
2022-10-06T23:48:38.185Z,4.97
2022-10-06T23:51:08.246Z,6.95
2022-10-06T23:53:36.003Z,6.91
2022-10-06T23:56:04.016Z,3.81
2022-10-06T23:58:32.303Z,6.86
